createdAt,value
2023-04-15T00:00:58.442Z,58.08
2023-04-15T00:03:25.389Z,58.22
2023-04-15T00:05:52.048Z,58.07
2023-04-15T00:08:18.465Z,58.37
2023-04-15T00:10:46.574Z,58.28
2023-04-15T00:13:13.143Z,59.06
2023-04-15T00:15:39.565Z,59.52
2023-04-15T00:18:07.362Z,59.23
2023-04-15T00:20:34.315Z,59.82
2023-04-15T00:23:02.613Z,59.58
2023-04-15T00:25:29.126Z,60.09
2023-04-15T00:27:55.602Z,59.86
2023-04-15T00:30:22.138Z,60.28
2023-04-15T00:32:49.447Z,60.43
2023-04-15T00:35:16.557Z,60.55
2023-04-15T00:37:45.476Z,60.69
2023-04-15T00:40:13.587Z,61.36
2023-04-15T00:42:40.167Z,61.38
2023-04-15T00:45:07.336Z,61.35
2023-04-15T00:47:34.089Z,61.49
2023-04-15T00:50:00.564Z,60.97
2023-04-15T00:52:27.129Z,61.12
2023-04-15T00:54:53.600Z,61.50
2023-04-15T00:57:21.771Z,61.87
2023-04-15T00:59:48.727Z,62.15
2023-04-15T01:02:15.432Z,62.19
2023-04-15T01:04:42.192Z,62.07
2023-04-15T01:07:09.167Z,62.29
2023-04-15T01:09:35.602Z,62.39
2023-04-15T01:12:02.802Z,62.84
2023-04-15T01:14:29.246Z,62.94
2023-04-15T01:16:56.324Z,63.41
2023-04-15T01:19:22.764Z,63.07
2023-04-15T01:21:49.309Z,63.44
2023-04-15T01:24:18.358Z,63.97
2023-04-15T01:26:45.196Z,63.27
2023-04-15T01:29:11.682Z,63.49
2023-04-15T01:31:38.569Z,63.90
2023-04-15T01:34:05.022Z,64.27
2023-04-15T01:36:31.447Z,64.65
2023-04-15T01:38:58.581Z,64.61
2023-04-15T01:41:28.701Z,65.26
2023-04-15T01:43:55.695Z,64.72
2023-04-15T01:46:22.585Z,64.64
2023-04-15T01:48:49.072Z,64.70
2023-04-15T01:51:15.574Z,65.06
2023-04-15T01:53:42.027Z,65.46
2023-04-15T01:56:08.741Z,65.69
2023-04-15T01:58:35.242Z,65.66
2023-04-15T02:01:02.961Z,66.09
2023-04-15T02:03:29.857Z,65.99
2023-04-15T02:05:56.720Z,66.42
2023-04-15T02:08:23.228Z,66.61
2023-04-15T02:10:49.683Z,66.63
2023-04-15T02:13:17.004Z,66.65
2023-04-15T02:15:50.657Z,68.03
2023-04-15T02:18:17.341Z,67.64
2023-04-15T02:20:43.919Z,67.75
2023-04-15T02:23:11.129Z,67.91
2023-04-15T02:25:39.021Z,67.97
2023-04-15T02:28:08.705Z,68.21
2023-04-15T02:30:35.238Z,68.20
2023-04-15T02:33:01.789Z,68.25
2023-04-15T02:35:28.283Z,68.37
2023-04-15T02:37:54.775Z,68.70
2023-04-15T02:40:21.202Z,68.92
2023-04-15T02:42:47.691Z,68.86
2023-04-15T02:45:14.126Z,69.04
2023-04-15T02:47:41.653Z,68.91
2023-04-15T02:52:35.699Z,69.38
2023-04-15T02:55:02.654Z,69.48
2023-04-15T02:57:29.576Z,70.03
2023-04-15T02:59:56.355Z,70.08
2023-04-15T03:02:23.309Z,70.35
2023-04-15T03:04:50.013Z,70.40
2023-04-15T03:07:17.943Z,70.32
2023-04-15T03:09:44.680Z,70.73
2023-04-15T03:12:11.257Z,70.70
2023-04-15T03:14:37.695Z,71.13
2023-04-15T03:17:04.105Z,71.21
2023-04-15T03:19:30.691Z,71.11
2023-04-15T03:21:57.204Z,71.24
2023-04-15T03:24:24.721Z,71.33
2023-04-15T03:26:51.394Z,71.29
2023-04-15T03:29:17.886Z,71.36
2023-04-15T03:31:44.316Z,71.85
2023-04-15T03:34:10.767Z,71.82
2023-04-15T03:36:37.177Z,71.85
2023-04-15T03:39:04.196Z,72.00
2023-04-15T03:41:30.910Z,72.38
2023-04-15T03:43:57.315Z,72.56
2023-04-15T03:46:23.888Z,72.73
2023-04-15T03:48:50.549Z,72.67
2023-04-15T03:51:17.024Z,72.43
2023-04-15T03:53:43.493Z,72.23
2023-04-15T03:56:09.903Z,72.49
2023-04-15T03:58:36.674Z,72.49
2023-04-15T04:01:03.242Z,72.97
2023-04-15T04:03:29.968Z,73.10
2023-04-15T04:05:56.645Z,72.76
2023-04-15T04:08:23.077Z,73.24
2023-04-15T04:10:49.457Z,73.49
2023-04-15T04:13:15.882Z,73.51
2023-04-15T04:15:42.403Z,73.54
2023-04-15T04:18:08.822Z,74.36
2023-04-15T04:20:35.561Z,74.56
2023-04-15T04:23:02.020Z,74.04
2023-04-15T04:25:28.423Z,74.60
2023-04-15T04:27:54.869Z,74.65
2023-04-15T04:30:21.374Z,74.58
2023-04-15T04:32:47.899Z,74.73
2023-04-15T04:35:14.399Z,74.94
2023-04-15T04:37:40.835Z,75.21
2023-04-15T04:40:08.137Z,74.99
2023-04-15T04:42:34.615Z,75.24
2023-04-15T04:45:01.072Z,75.39
2023-04-15T04:47:27.612Z,75.21
2023-04-15T04:49:54.086Z,75.65
2023-04-15T04:52:20.555Z,75.86
2023-04-15T04:54:47.397Z,75.99
2023-04-15T04:57:13.892Z,75.90
2023-04-15T04:59:41.219Z,75.51
2023-04-15T05:02:07.764Z,76.01
2023-04-15T05:04:34.480Z,76.03
2023-04-15T05:07:00.913Z,76.04
2023-04-15T05:09:27.405Z,75.83
2023-04-15T05:11:54.032Z,75.90
2023-04-15T05:14:22.237Z,76.00
2023-04-15T05:16:49.730Z,76.08
2023-04-15T05:19:16.192Z,76.02
2023-04-15T05:21:42.924Z,76.23
2023-04-15T05:24:09.371Z,76.39
2023-04-15T05:26:36.013Z,75.92
2023-04-15T05:29:02.909Z,76.38
2023-04-15T05:31:29.503Z,76.20
2023-04-15T05:33:56.059Z,76.29
2023-04-15T05:36:22.522Z,76.55
2023-04-15T05:38:48.966Z,76.58
2023-04-15T05:41:17.810Z,76.32
2023-04-15T05:43:46.452Z,76.62
2023-04-15T05:46:12.988Z,76.73
2023-04-15T05:48:39.459Z,76.67
2023-04-15T05:51:06.314Z,76.68
2023-04-15T05:53:32.799Z,76.71
2023-04-15T05:55:59.320Z,76.76
2023-04-15T05:58:26.015Z,76.51
2023-04-15T06:00:52.672Z,77.25
2023-04-15T06:03:19.174Z,77.19
2023-04-15T06:05:45.704Z,77.32
2023-04-15T06:08:12.545Z,77.22
2023-04-15T06:10:39.045Z,77.11
2023-04-15T06:13:05.802Z,77.54
2023-04-15T06:15:32.413Z,77.40
2023-04-15T06:17:59.310Z,77.45
2023-04-15T06:20:26.217Z,76.95
2023-04-15T06:22:52.711Z,77.11
2023-04-15T06:25:19.146Z,77.10
2023-04-15T06:27:45.633Z,77.20
2023-04-15T06:30:12.464Z,77.02
2023-04-15T06:32:39.034Z,77.54
2023-04-15T06:35:05.694Z,77.27
2023-04-15T06:37:32.701Z,77.20
2023-04-15T06:39:59.133Z,77.36
2023-04-15T06:42:25.782Z,77.21
2023-04-15T06:44:52.246Z,77.32
2023-04-15T06:47:19.732Z,77.28
2023-04-15T06:49:46.382Z,77.30
2023-04-15T06:52:13.019Z,77.17
2023-04-15T06:54:39.473Z,77.00
2023-04-15T06:57:07.121Z,76.80
2023-04-15T06:59:33.571Z,76.51
2023-04-15T07:02:00.082Z,76.57
2023-04-15T07:04:27.764Z,76.39
2023-04-15T07:06:55.525Z,76.23
2023-04-15T07:09:23.232Z,76.39
2023-04-15T07:11:49.995Z,76.30
2023-04-15T07:14:16.545Z,76.17
2023-04-15T07:16:43.050Z,75.80
2023-04-15T07:19:09.504Z,75.67
2023-04-15T07:21:35.899Z,75.20
2023-04-15T07:24:02.362Z,74.61
2023-04-15T07:26:28.848Z,73.57
2023-04-15T07:28:55.505Z,72.98
2023-04-15T07:31:22.145Z,72.19
2023-04-15T07:33:48.624Z,72.23
2023-04-15T07:36:15.419Z,71.59
2023-04-15T07:38:42.462Z,71.58
2023-04-15T07:41:09.190Z,71.55
2023-04-15T07:43:35.663Z,70.83
2023-04-15T07:46:02.140Z,70.24
2023-04-15T07:48:28.563Z,69.36
2023-04-15T07:50:54.982Z,68.94
2023-04-15T07:53:21.428Z,68.83
2023-04-15T07:55:47.853Z,68.36
2023-04-15T07:58:14.295Z,67.61
2023-04-15T08:00:40.890Z,67.06
2023-04-15T08:03:07.755Z,65.73
2023-04-15T08:05:34.557Z,65.12
2023-04-15T08:08:01.433Z,64.77
2023-04-15T08:10:29.656Z,63.87
2023-04-15T08:12:56.494Z,63.38
2023-04-15T08:15:23.524Z,62.83
2023-04-15T08:17:50.432Z,62.77
2023-04-15T08:20:16.963Z,62.37
2023-04-15T08:22:43.425Z,61.96
2023-04-15T08:25:10.434Z,61.92
2023-04-15T08:27:36.910Z,61.34
2023-04-15T08:30:04.993Z,60.89
2023-04-15T08:32:32.033Z,60.58
2023-04-15T08:34:58.580Z,60.11
2023-04-15T08:37:25.055Z,59.69
2023-04-15T08:39:51.524Z,59.32
2023-04-15T08:42:22.975Z,58.90
2023-04-15T08:44:49.590Z,58.88
2023-04-15T08:47:18.044Z,58.62
2023-04-15T08:49:44.634Z,57.44
2023-04-15T08:52:12.191Z,56.65
2023-04-15T08:54:38.748Z,56.27
2023-04-15T08:57:05.233Z,55.55
2023-04-15T08:59:31.936Z,54.97
2023-04-15T09:01:58.989Z,54.95
2023-04-15T09:04:25.469Z,55.19
2023-04-15T09:06:52.291Z,54.83
2023-04-15T09:09:18.723Z,54.59
2023-04-15T09:11:45.510Z,54.59
2023-04-15T09:14:12.246Z,53.49
2023-04-15T09:17:01.318Z,50.35
2023-04-15T09:19:28.119Z,52.94
2023-04-15T09:21:58.896Z,51.83
2023-04-15T09:24:27.113Z,50.86
2023-04-15T09:26:54.719Z,50.26
2023-04-15T09:29:24.592Z,47.82
2023-04-15T09:31:51.523Z,48.67
2023-04-15T09:34:17.961Z,48.30
2023-04-15T09:36:48.623Z,45.72
2023-04-15T09:39:16.968Z,46.34
2023-04-15T09:41:44.408Z,44.94
2023-04-15T09:44:27.045Z,41.21
2023-04-15T09:46:53.637Z,43.17
2023-04-15T09:49:20.989Z,42.79
2023-04-15T09:52:01.413Z,41.88
2023-04-15T09:54:36.443Z,41.69
2023-04-15T09:57:10.208Z,40.33
2023-04-15T09:59:37.072Z,41.81
2023-04-15T10:02:05.892Z,41.36
2023-04-15T10:04:36.299Z,40.90
2023-04-15T10:07:04.965Z,40.82
2023-04-15T10:09:33.296Z,41.34
2023-04-15T10:12:01.097Z,41.71
2023-04-15T10:14:29.281Z,41.43
2023-04-15T10:16:56.460Z,41.55
2023-04-15T10:19:26.401Z,40.67
2023-04-15T10:21:53.644Z,41.60
2023-04-15T10:24:20.106Z,41.92
2023-04-15T10:26:46.887Z,42.25
2023-04-15T10:29:13.997Z,41.84
2023-04-15T10:31:41.528Z,41.68
2023-04-15T10:34:08.651Z,42.05
2023-04-15T10:36:35.050Z,41.52
2023-04-15T10:39:01.490Z,41.10
2023-04-15T10:41:31.241Z,41.59
2023-04-15T10:44:03.676Z,42.17
2023-04-15T10:46:42.107Z,43.17
2023-04-15T10:49:11.538Z,42.60
2023-04-15T10:51:41.576Z,43.30
2023-04-15T10:54:16.254Z,41.66
2023-04-15T10:56:43.968Z,41.65
2023-04-15T10:59:10.545Z,41.54
2023-04-15T11:02:00.153Z,40.05
2023-04-15T11:04:55.535Z,41.46
2023-04-15T11:07:39.585Z,39.55
2023-04-15T11:10:18.329Z,40.50
2023-04-15T11:12:45.866Z,39.98
2023-04-15T11:15:37.772Z,38.84
2023-04-15T11:18:17.024Z,40.53
2023-04-15T11:20:48.608Z,40.58
2023-04-15T11:23:16.058Z,40.89
2023-04-15T11:25:43.439Z,40.79
2023-04-15T11:28:12.014Z,40.79
2023-04-15T11:30:39.419Z,40.06
2023-04-15T11:33:08.589Z,39.92
2023-04-15T11:35:35.925Z,39.20
2023-04-15T11:38:06.198Z,39.23
2023-04-15T11:40:35.808Z,40.63
2023-04-15T11:43:09.011Z,40.63
2023-04-15T11:45:36.731Z,41.00
2023-04-15T11:48:11.930Z,41.74
2023-04-15T11:50:41.096Z,41.83
2023-04-15T11:53:09.296Z,40.91
2023-04-15T11:55:47.110Z,39.43
2023-04-15T11:58:22.431Z,39.79
2023-04-15T12:00:57.446Z,40.28
2023-04-15T12:03:25.288Z,41.33
2023-04-15T12:06:11.568Z,41.83
2023-04-15T12:09:00.154Z,41.26
2023-04-15T12:11:26.519Z,41.88
2023-04-15T12:13:58.629Z,41.36
2023-04-15T12:16:27.956Z,40.64
2023-04-15T12:18:56.977Z,40.64
2023-04-15T12:21:25.128Z,42.53
2023-04-15T12:23:55.760Z,42.63
2023-04-15T12:26:34.304Z,39.93
2023-04-15T12:29:02.792Z,40.20
2023-04-15T12:31:29.532Z,41.69
2023-04-15T12:33:56.973Z,41.50
2023-04-15T12:36:24.039Z,40.84
2023-04-15T12:38:50.690Z,41.01
2023-04-15T12:41:17.187Z,40.43
2023-04-15T12:43:49.371Z,41.22
2023-04-15T12:46:16.140Z,42.62
2023-04-15T12:48:42.760Z,42.23
2023-04-15T12:51:09.201Z,41.86
2023-04-15T12:53:35.713Z,41.26
2023-04-15T12:56:02.271Z,40.01
2023-04-15T12:58:28.784Z,41.28
2023-04-15T13:00:55.341Z,41.31
2023-04-15T13:03:21.926Z,42.07
2023-04-15T13:05:48.554Z,42.37
2023-04-15T13:08:15.641Z,41.84
2023-04-15T13:10:42.540Z,42.78
2023-04-15T13:13:09.197Z,43.05
2023-04-15T13:15:35.876Z,44.14
2023-04-15T13:18:02.962Z,44.18
2023-04-15T13:20:29.427Z,43.72
2023-04-15T13:22:56.103Z,43.66
2023-04-15T13:25:22.554Z,45.08
2023-04-15T13:27:49.935Z,44.23
2023-04-15T13:30:16.505Z,44.24
2023-04-15T13:32:42.999Z,43.99
2023-04-15T13:35:09.483Z,44.79
2023-04-15T13:37:35.949Z,45.50
2023-04-15T13:40:02.869Z,46.46
2023-04-15T13:42:29.353Z,47.23
2023-04-15T13:44:55.869Z,47.66
2023-04-15T13:47:22.421Z,47.94
2023-04-15T13:49:48.892Z,48.11
2023-04-15T13:52:15.345Z,49.44
2023-04-15T13:54:41.770Z,50.18
2023-04-15T13:57:08.237Z,49.98
2023-04-15T13:59:34.978Z,50.32
2023-04-15T14:02:01.534Z,49.94
2023-04-15T14:04:28.126Z,49.92
2023-04-15T14:06:54.707Z,50.94
2023-04-15T14:09:26.271Z,51.43
2023-04-15T14:11:52.991Z,51.84
2023-04-15T14:14:19.400Z,52.50
2023-04-15T14:16:46.037Z,53.50
2023-04-15T14:19:12.610Z,53.23
2023-04-15T14:21:39.091Z,54.34
2023-04-15T14:24:05.970Z,52.69
2023-04-15T14:26:32.636Z,53.12
2023-04-15T14:28:59.152Z,52.70
2023-04-15T14:31:25.673Z,52.86
2023-04-15T14:33:52.302Z,52.29
2023-04-15T14:36:18.771Z,52.04
2023-04-15T14:38:46.141Z,52.40
2023-04-15T14:41:14.160Z,53.28
2023-04-15T14:43:40.752Z,53.67
2023-04-15T14:46:08.503Z,54.69
2023-04-15T14:48:35.362Z,54.84
2023-04-15T14:51:02.183Z,55.40
2023-04-15T14:53:28.728Z,55.52
2023-04-15T14:55:55.264Z,55.10
2023-04-15T14:58:22.245Z,54.76
2023-04-15T15:00:48.720Z,53.91
2023-04-15T15:03:15.795Z,54.19
2023-04-15T15:05:44.282Z,54.53
2023-04-15T15:08:11.365Z,54.95
2023-04-15T15:10:48.045Z,55.02
2023-04-15T15:13:16.284Z,55.55
2023-04-15T15:15:42.929Z,56.16
2023-04-15T15:18:10.384Z,56.07
2023-04-15T15:20:36.864Z,56.13
2023-04-15T15:23:03.302Z,56.28
2023-04-15T15:25:29.812Z,56.57
2023-04-15T15:27:57.368Z,56.58
2023-04-15T15:30:23.935Z,57.15
2023-04-15T15:32:50.478Z,57.33
2023-04-15T15:35:16.963Z,58.27
2023-04-15T15:37:43.549Z,58.20
2023-04-15T15:40:10.569Z,58.72
2023-04-15T15:42:37.053Z,59.02
2023-04-15T15:45:04.269Z,58.41
2023-04-15T15:47:30.875Z,58.44
2023-04-15T15:49:57.320Z,58.33
2023-04-15T15:52:23.801Z,58.80
2023-04-15T15:54:50.549Z,59.07
2023-04-15T15:57:17.027Z,59.84
2023-04-15T15:59:43.715Z,60.15
2023-04-15T16:02:11.306Z,60.34
2023-04-15T16:04:38.955Z,60.11
2023-04-15T16:07:05.542Z,59.68
2023-04-15T16:09:32.278Z,59.43
2023-04-15T16:11:59.123Z,59.81
2023-04-15T16:14:26.355Z,60.43
2023-04-15T16:16:53.343Z,60.56
2023-04-15T16:19:20.779Z,60.84
2023-04-15T16:21:48.068Z,61.11
2023-04-15T16:24:14.692Z,60.93
2023-04-15T16:26:41.792Z,60.75
2023-04-15T16:29:08.282Z,61.64
2023-04-15T16:31:35.629Z,61.42
2023-04-15T16:34:02.558Z,61.66
2023-04-15T16:36:29.071Z,62.22
2023-04-15T16:38:55.891Z,62.12
2023-04-15T16:41:22.421Z,62.29
2023-04-15T16:43:49.103Z,62.22
2023-04-15T16:46:15.750Z,62.37
2023-04-15T16:48:42.368Z,61.78
2023-04-15T16:51:08.927Z,61.35
2023-04-15T16:53:35.377Z,60.71
2023-04-15T16:56:01.839Z,60.94
2023-04-15T16:58:28.824Z,61.07
2023-04-15T17:00:55.386Z,61.29
2023-04-15T17:03:22.067Z,60.83
2023-04-15T17:05:48.658Z,61.10
2023-04-15T17:08:15.169Z,61.56
2023-04-15T17:10:41.643Z,61.84
2023-04-15T17:13:08.130Z,61.92
2023-04-15T17:15:34.651Z,61.49
2023-04-15T17:18:01.930Z,61.66
2023-04-15T17:20:28.434Z,62.16
2023-04-15T17:22:54.978Z,62.40
2023-04-15T17:25:21.754Z,63.05
2023-04-15T17:27:48.140Z,63.56
2023-04-15T17:30:14.556Z,63.62
2023-04-15T17:32:41.135Z,64.58
2023-04-15T17:35:08.078Z,64.26
2023-04-15T17:37:34.608Z,64.65
2023-04-15T17:40:01.409Z,64.66
2023-04-15T17:42:27.992Z,64.71
2023-04-15T17:44:54.450Z,65.29
2023-04-15T17:47:20.945Z,65.42
2023-04-15T17:49:47.777Z,65.80
2023-04-15T17:52:14.307Z,65.71
2023-04-15T17:54:40.759Z,65.69
2023-04-15T17:57:07.229Z,65.69
2023-04-15T17:59:34.133Z,66.33
2023-04-15T18:02:00.858Z,66.30
2023-04-15T18:04:27.536Z,66.01
2023-04-15T18:06:54.212Z,66.86
2023-04-15T18:09:20.959Z,66.73
2023-04-15T18:11:48.651Z,66.42
2023-04-15T18:14:26.648Z,66.88
2023-04-15T18:16:57.392Z,68.76
2023-04-15T18:19:25.647Z,66.85
2023-04-15T18:21:52.233Z,67.08
2023-04-15T18:24:18.916Z,66.53
2023-04-15T18:26:47.554Z,66.53
2023-04-15T18:29:15.536Z,67.04
2023-04-15T18:31:42.079Z,67.02
2023-04-15T18:34:08.646Z,66.93
2023-04-15T18:36:35.403Z,66.90
2023-04-15T18:39:02.015Z,67.22
2023-04-15T18:41:28.569Z,67.34
2023-04-15T18:43:56.222Z,67.38
2023-04-15T18:46:22.749Z,67.46
2023-04-15T18:48:49.181Z,67.70
2023-04-15T18:51:15.949Z,67.77
2023-04-15T18:53:42.379Z,67.58
2023-04-15T18:56:08.775Z,67.51
2023-04-15T18:59:27.624Z,67.41
2023-04-15T19:01:21.906Z,68.02
2023-04-15T19:03:48.434Z,67.85
2023-04-15T19:06:14.899Z,68.20
2023-04-15T19:08:41.459Z,68.31
2023-04-15T19:11:08.462Z,68.23
2023-04-15T19:13:34.946Z,68.51
2023-04-15T19:16:01.403Z,68.26
2023-04-15T19:18:27.782Z,68.07
2023-04-15T19:20:55.894Z,68.42
2023-04-15T19:23:23.439Z,68.73
2023-04-15T19:25:49.903Z,68.54
2023-04-15T19:28:16.345Z,69.12
2023-04-15T19:30:43.054Z,68.62
2023-04-15T19:33:09.498Z,68.70
2023-04-15T19:35:36.220Z,69.10
2023-04-15T19:38:03.176Z,68.69
2023-04-15T19:40:29.642Z,68.96
2023-04-15T19:42:56.090Z,68.93
2023-04-15T19:45:22.672Z,69.32
2023-04-15T19:47:49.261Z,69.29
2023-04-15T19:50:16.881Z,69.45
2023-04-15T19:52:43.359Z,69.53
2023-04-15T19:55:10.214Z,69.27
2023-04-15T19:57:36.683Z,69.31
2023-04-15T20:00:03.280Z,69.69
2023-04-15T20:02:30.198Z,69.32
2023-04-15T20:04:56.807Z,69.88
2023-04-15T20:07:23.211Z,69.80
2023-04-15T20:09:51.576Z,70.00
2023-04-15T20:12:51.087Z,70.16
2023-04-15T20:15:06.379Z,70.12
2023-04-15T20:17:33.548Z,70.29
2023-04-15T20:20:00.028Z,70.73
2023-04-15T20:22:26.555Z,70.84
2023-04-15T20:24:52.937Z,70.89
2023-04-15T20:27:20.919Z,70.78
2023-04-15T20:29:48.016Z,70.47
2023-04-15T20:32:14.518Z,70.81
2023-04-15T20:34:41.161Z,71.08
2023-04-15T20:37:07.693Z,71.41
2023-04-15T20:39:34.426Z,71.07
2023-04-15T20:42:01.493Z,71.67
2023-04-15T20:44:27.977Z,72.02
2023-04-15T20:46:54.520Z,71.87
2023-04-15T20:49:21.091Z,71.98
2023-04-15T20:51:48.559Z,71.96
2023-04-15T20:54:15.080Z,71.74
2023-04-15T20:56:41.612Z,71.93
2023-04-15T20:59:08.097Z,71.89
2023-04-15T21:01:34.594Z,72.37
2023-04-15T21:04:01.142Z,72.36
2023-04-15T21:06:27.818Z,72.56
2023-04-15T21:08:54.303Z,72.31
2023-04-15T21:11:38.741Z,72.61
2023-04-15T21:14:08.287Z,73.03
2023-04-15T21:16:34.770Z,73.03
2023-04-15T21:19:01.264Z,73.27
2023-04-15T21:21:28.030Z,73.42
2023-04-15T21:23:54.428Z,73.62
2023-04-15T21:26:20.905Z,73.99
2023-04-15T21:28:47.374Z,74.02
2023-04-15T21:31:13.974Z,74.40
2023-04-15T21:33:40.372Z,74.79
2023-04-15T21:36:07.337Z,75.09
2023-04-15T21:38:34.283Z,75.67
2023-04-15T21:41:01.669Z,75.53
2023-04-15T21:43:28.113Z,75.72
2023-04-15T21:46:21.111Z,75.96
2023-04-15T21:48:40.942Z,76.38
2023-04-15T21:51:07.873Z,76.68
2023-04-15T21:53:34.841Z,77.17
2023-04-15T21:56:01.665Z,77.04
2023-04-15T21:58:28.092Z,77.40
2023-04-15T22:00:59.836Z,78.00
2023-04-15T22:03:33.592Z,77.99
2023-04-15T22:06:01.793Z,77.91
2023-04-15T22:08:28.341Z,78.44
2023-04-15T22:10:55.390Z,78.57
2023-04-15T22:13:21.895Z,78.48
2023-04-15T22:15:48.388Z,78.59
2023-04-15T22:18:14.824Z,79.02
2023-04-15T22:20:41.411Z,78.99
2023-04-15T22:23:08.895Z,78.50
2023-04-15T22:25:36.994Z,78.60
2023-04-15T22:28:06.811Z,78.63
2023-04-15T22:30:39.773Z,78.49
2023-04-15T22:33:07.189Z,79.08
2023-04-15T22:35:37.477Z,79.22
2023-04-15T22:38:04.593Z,79.14
2023-04-15T22:40:31.082Z,80.01
2023-04-15T22:42:57.659Z,79.82
2023-04-15T22:45:24.065Z,80.13
2023-04-15T22:47:50.600Z,80.43
2023-04-15T22:50:17.146Z,80.48
2023-04-15T22:52:46.076Z,81.49
2023-04-15T22:55:12.618Z,81.18
2023-04-15T22:57:39.034Z,81.24
2023-04-15T23:00:06.102Z,80.83
2023-04-15T23:02:33.250Z,81.31
2023-04-15T23:05:00.003Z,81.50
2023-04-15T23:07:29.973Z,81.49
2023-04-15T23:09:56.884Z,81.65
2023-04-15T23:12:23.417Z,81.78
2023-04-15T23:14:49.818Z,82.18
2023-04-15T23:17:16.270Z,82.55
2023-04-15T23:19:42.679Z,82.68
2023-04-15T23:22:10.583Z,82.88
2023-04-15T23:24:37.173Z,82.77
2023-04-15T23:27:03.706Z,83.51
2023-04-15T23:29:30.368Z,83.74
2023-04-15T23:31:57.125Z,83.85
2023-04-15T23:34:23.675Z,84.08
2023-04-15T23:36:50.057Z,83.84
2023-04-15T23:39:16.940Z,83.86
2023-04-15T23:41:43.335Z,84.15
2023-04-15T23:44:09.979Z,84.02
2023-04-15T23:46:36.578Z,84.65
2023-04-15T23:49:03.108Z,84.79
2023-04-15T23:51:29.484Z,85.53
2023-04-15T23:53:56.192Z,85.56
2023-04-15T23:56:22.626Z,85.32
2023-04-15T23:58:50.172Z,85.43
